Terminal Aerodrome Forecast
Issued by NWS

Home | Current Version | Previous Version | Text Only | Print | Product List | Glossary On
Versions: 1 2 3 4 5 6 7 8 9 10 11 12 13 14 15 16
000
FTUS41 KBGM 221735 AAA
TAFELM
TAF AMD
KELM 221735Z 2218/2318 31011KT P6SM OVC035
     FM230300 31007KT P6SM BKN080
     FM231300 VRB02KT P6SM BKN100=

USA.gov is the U.S. government's official web portal to all federal, state and local government web resources and services.